createdAt,value
2018-09-09T00:02:01.377Z,14.60
2018-09-09T00:04:32.036Z,14.60
2018-09-09T00:07:03.150Z,14.50
2018-09-09T00:09:39.348Z,14.50
2018-09-09T00:12:10.508Z,14.50
2018-09-09T00:14:41.449Z,14.50
2018-09-09T00:17:12.221Z,14.40
2018-09-09T00:19:43.025Z,14.40
2018-09-09T00:22:13.701Z,14.40
2018-09-09T00:24:44.407Z,14.30
2018-09-09T00:27:15.109Z,14.30
2018-09-09T00:29:45.794Z,14.30
2018-09-09T00:32:16.431Z,14.30
2018-09-09T00:34:47.161Z,14.30
2018-09-09T00:37:18.294Z,14.20
2018-09-09T00:39:49.000Z,14.20
2018-09-09T00:42:19.651Z,14.10
2018-09-09T00:44:50.346Z,14.10
2018-09-09T00:47:21.125Z,14.00
2018-09-09T00:50:57.848Z,13.90
2018-09-09T00:53:33.944Z,14.00
2018-09-09T00:56:04.775Z,13.80
2018-09-09T00:58:35.440Z,13.80
2018-09-09T01:01:11.961Z,13.80
2018-09-09T01:03:42.612Z,13.80
2018-09-09T01:06:13.312Z,13.80
2018-09-09T01:08:43.952Z,13.70
2018-09-09T01:11:14.644Z,13.70
2018-09-09T01:13:45.316Z,13.70
2018-09-09T01:16:16.410Z,13.60
2018-09-09T01:18:47.064Z,13.70
2018-09-09T01:21:17.751Z,13.60
2018-09-09T01:23:48.441Z,13.60
2018-09-09T01:26:19.097Z,13.60
2018-09-09T01:28:49.779Z,13.60
2018-09-09T01:31:20.443Z,13.50
2018-09-09T01:33:51.116Z,13.50
2018-09-09T01:36:21.849Z,13.50
2018-09-09T01:38:52.584Z,13.50
2018-09-09T01:41:23.270Z,13.40
2018-09-09T01:43:53.973Z,13.40
2018-09-09T01:46:24.648Z,13.40
2018-09-09T01:48:55.366Z,13.40
2018-09-09T01:51:26.478Z,13.40
2018-09-09T01:53:57.212Z,13.40
2018-09-09T01:56:27.898Z,13.40
2018-09-09T01:58:58.619Z,13.40
2018-09-09T02:01:29.316Z,13.40
2018-09-09T02:04:00.018Z,13.40
2018-09-09T02:06:30.745Z,13.40
2018-09-09T02:09:01.424Z,13.40
2018-09-09T02:11:32.129Z,13.40
2018-09-09T02:14:02.810Z,13.40
2018-09-09T02:16:33.509Z,13.40
2018-09-09T02:19:11.354Z,13.40
2018-09-09T02:21:42.065Z,13.40
2018-09-09T02:24:12.750Z,13.40
2018-09-09T02:26:43.453Z,13.40
2018-09-09T02:29:14.116Z,13.40
2018-09-09T02:31:45.028Z,13.40
2018-09-09T02:34:15.705Z,13.40
2018-09-09T02:36:46.398Z,13.40
2018-09-09T02:39:17.487Z,13.40
2018-09-09T02:41:48.145Z,13.40
2018-09-09T02:44:18.849Z,13.40
2018-09-09T02:46:49.533Z,13.40
2018-09-09T02:49:20.228Z,13.40
2018-09-09T02:51:50.943Z,13.40
2018-09-09T02:54:21.845Z,13.40
2018-09-09T02:56:52.492Z,13.40
2018-09-09T02:59:23.190Z,13.30
2018-09-09T03:01:53.840Z,13.30
2018-09-09T03:04:24.553Z,13.30
2018-09-09T03:06:55.190Z,13.30
2018-09-09T03:09:25.883Z,13.30
2018-09-09T03:11:56.768Z,13.30
2018-09-09T03:14:27.420Z,13.30
2018-09-09T03:16:58.114Z,13.20
2018-09-09T03:19:28.773Z,13.20
2018-09-09T03:21:59.570Z,13.20
2018-09-09T03:24:30.220Z,13.20
2018-09-09T03:27:00.911Z,13.20
2018-09-09T03:29:31.556Z,13.20
2018-09-09T03:32:02.246Z,13.20
2018-09-09T03:34:32.907Z,13.30
2018-09-09T03:37:03.588Z,13.30
2018-09-09T03:39:34.248Z,13.30
2018-09-09T03:42:04.973Z,13.30
2018-09-09T03:44:35.628Z,13.30
2018-09-09T03:47:06.325Z,13.30
2018-09-09T03:49:36.985Z,13.40
2018-09-09T03:52:07.721Z,13.40
2018-09-09T03:54:38.375Z,13.40
2018-09-09T03:57:09.073Z,13.30
2018-09-09T03:59:39.789Z,13.30
2018-09-09T04:02:10.441Z,13.30
2018-09-09T04:04:41.328Z,13.30
2018-09-09T04:07:12.002Z,13.30
2018-09-09T04:09:42.697Z,13.30
2018-09-09T04:12:13.344Z,13.30
2018-09-09T04:14:44.024Z,13.30
2018-09-09T04:17:14.687Z,13.20
2018-09-09T04:19:45.544Z,13.20
2018-09-09T04:22:16.227Z,13.20
2018-09-09T04:24:46.925Z,13.30
2018-09-09T04:27:17.617Z,13.30
2018-09-09T04:29:48.272Z,13.30
2018-09-09T04:32:18.966Z,13.30
2018-09-09T04:34:49.612Z,13.30
2018-09-09T04:37:20.297Z,13.30
2018-09-09T04:39:51.305Z,13.30
2018-09-09T04:42:22.010Z,13.30
2018-09-09T04:44:52.665Z,13.30
2018-09-09T04:47:23.373Z,13.40
2018-09-09T04:49:54.044Z,13.40
2018-09-09T04:52:26.515Z,13.40
2018-09-09T04:54:57.180Z,13.40
2018-09-09T04:57:27.949Z,13.30
2018-09-09T04:59:58.656Z,13.40
2018-09-09T05:02:29.321Z,13.30
2018-09-09T05:05:00.010Z,13.30
2018-09-09T05:07:30.660Z,13.30
2018-09-09T05:10:01.356Z,13.30
2018-09-09T05:12:32.017Z,13.30
2018-09-09T05:15:02.898Z,13.30
2018-09-09T05:17:33.744Z,13.30
2018-09-09T05:20:04.816Z,13.30
2018-09-09T05:22:35.488Z,13.30
2018-09-09T05:25:06.695Z,13.30
2018-09-09T05:27:37.349Z,13.30
2018-09-09T05:30:08.376Z,13.30
2018-09-09T05:32:39.027Z,13.40
2018-09-09T05:35:09.741Z,13.40
2018-09-09T05:37:40.415Z,13.40
2018-09-09T05:40:11.135Z,13.40
2018-09-09T05:42:41.922Z,13.50
2018-09-09T05:45:12.645Z,13.50
2018-09-09T05:47:43.328Z,13.60
2018-09-09T05:50:14.068Z,13.60
2018-09-09T05:52:44.894Z,13.60
2018-09-09T05:55:15.586Z,13.70
2018-09-09T05:57:46.287Z,13.70
2018-09-09T06:00:17.161Z,13.80
2018-09-09T06:02:47.848Z,13.80
2018-09-09T06:05:18.518Z,13.90
2018-09-09T06:07:49.200Z,13.90
2018-09-09T06:10:19.856Z,13.90
2018-09-09T06:12:50.554Z,14.00
2018-09-09T06:15:21.240Z,14.00
2018-09-09T06:17:51.942Z,14.00
2018-09-09T06:20:22.620Z,14.00
2018-09-09T06:22:53.448Z,14.00
2018-09-09T06:25:24.352Z,14.00
2018-09-09T06:27:55.032Z,14.10
2018-09-09T06:30:25.725Z,14.10
2018-09-09T06:32:56.497Z,14.20
2018-09-09T06:35:27.156Z,14.20
2018-09-09T06:37:57.841Z,14.30
2018-09-09T06:40:28.490Z,14.30
2018-09-09T06:42:59.400Z,14.40
2018-09-09T06:45:30.097Z,14.40
2018-09-09T06:48:00.777Z,14.50
2018-09-09T06:50:31.457Z,14.60
2018-09-09T06:53:02.189Z,14.60
2018-09-09T06:55:32.887Z,14.70
2018-09-09T06:58:03.757Z,14.80
2018-09-09T07:00:34.421Z,14.80
2018-09-09T07:03:05.448Z,14.90
2018-09-09T07:05:36.129Z,14.90
2018-09-09T07:08:06.809Z,15.00
2018-09-09T07:10:37.479Z,15.00
2018-09-09T07:13:08.160Z,15.10
2018-09-09T07:15:38.853Z,15.20
2018-09-09T07:18:09.510Z,15.30
2018-09-09T07:20:40.197Z,15.40
2018-09-09T07:23:10.867Z,15.40
2018-09-09T07:25:48.052Z,15.40
2018-09-09T07:28:18.696Z,15.50
2018-09-09T07:30:49.393Z,15.50
2018-09-09T07:33:20.085Z,15.50
2018-09-09T07:35:50.764Z,15.50
2018-09-09T07:38:21.554Z,15.60
2018-09-09T07:40:52.293Z,15.60
2018-09-09T07:43:23.456Z,15.70
2018-09-09T07:45:54.096Z,15.70
2018-09-09T07:48:24.785Z,15.70
2018-09-09T07:50:55.640Z,15.70
2018-09-09T07:53:26.315Z,15.70
2018-09-09T07:55:56.973Z,15.70
2018-09-09T07:58:27.690Z,15.70
2018-09-09T08:00:58.350Z,15.70
2018-09-09T08:03:29.044Z,15.70
2018-09-09T08:05:59.700Z,15.80
2018-09-09T08:08:30.375Z,15.80
2018-09-09T08:11:01.025Z,15.90
2018-09-09T08:13:31.725Z,15.90
2018-09-09T08:16:02.400Z,15.90
2018-09-09T08:18:33.510Z,16.00
2018-09-09T08:21:04.285Z,16.00
2018-09-09T08:23:35.070Z,16.10
2018-09-09T08:26:06.516Z,16.20
2018-09-09T08:28:37.204Z,16.40
2018-09-09T08:31:07.886Z,16.60
2018-09-09T08:33:38.813Z,16.70
2018-09-09T08:36:09.484Z,16.80
2018-09-09T08:38:40.540Z,17.00
2018-09-09T08:41:11.216Z,17.10
2018-09-09T08:43:41.905Z,17.20
2018-09-09T08:46:12.572Z,17.40
2018-09-09T08:48:43.264Z,17.50
2018-09-09T08:51:13.968Z,17.60
2018-09-09T08:53:44.677Z,17.70
2018-09-09T08:56:15.325Z,17.90
2018-09-09T08:58:46.042Z,18.00
2018-09-09T09:01:16.711Z,18.10
2018-09-09T09:03:47.356Z,18.20
2018-09-09T09:06:18.033Z,18.30
2018-09-09T09:08:48.856Z,18.40
2018-09-09T09:11:19.566Z,18.50
2018-09-09T09:13:50.220Z,18.70
2018-09-09T09:16:20.896Z,18.80
2018-09-09T09:18:51.550Z,18.80
2018-09-09T09:21:22.220Z,18.80
2018-09-09T09:23:52.904Z,18.90
2018-09-09T09:26:23.588Z,19.00
2018-09-09T09:28:53.971Z,19.10
2018-09-09T09:31:24.652Z,19.30
2018-09-09T09:33:55.332Z,19.40
2018-09-09T09:36:26.044Z,19.50
2018-09-09T09:38:56.721Z,19.50
2018-09-09T09:41:27.116Z,19.60
2018-09-09T09:43:57.772Z,19.60
2018-09-09T09:46:28.168Z,19.70
2018-09-09T09:48:58.531Z,19.70
2018-09-09T09:51:28.961Z,19.80
2018-09-09T09:53:59.367Z,20.00
2018-09-09T09:56:29.769Z,20.10
2018-09-09T09:59:00.176Z,20.20
2018-09-09T10:01:30.572Z,20.30
2018-09-09T10:04:00.940Z,20.30
2018-09-09T10:06:31.345Z,20.40
2018-09-09T10:09:01.755Z,20.30
2018-09-09T10:11:32.340Z,20.30
2018-09-09T10:14:02.723Z,20.30
2018-09-09T10:16:33.148Z,20.30
2018-09-09T10:19:03.519Z,20.30
2018-09-09T10:21:33.916Z,20.30
2018-09-09T10:24:04.316Z,20.30
2018-09-09T10:26:34.715Z,20.30
2018-09-09T10:29:05.102Z,20.40
2018-09-09T10:31:35.518Z,20.50
2018-09-09T10:34:05.966Z,20.50
2018-09-09T10:36:36.360Z,20.70
2018-09-09T10:39:09.004Z,20.80
2018-09-09T10:41:39.623Z,20.90
2018-09-09T10:44:10.280Z,20.90
2018-09-09T10:46:40.676Z,21.00
2018-09-09T10:49:11.243Z,21.00
2018-09-09T10:51:41.616Z,21.00
2018-09-09T10:54:12.036Z,21.10
2018-09-09T10:56:42.405Z,21.10
2018-09-09T10:59:12.787Z,21.20
2018-09-09T11:01:43.164Z,21.20
2018-09-09T11:04:13.548Z,21.30
2018-09-09T11:06:43.975Z,21.40
2018-09-09T11:09:14.353Z,21.40
2018-09-09T11:11:44.756Z,21.50
2018-09-09T11:14:15.120Z,21.50
2018-09-09T11:16:45.512Z,21.60
2018-09-09T11:19:15.891Z,21.60
2018-09-09T11:21:46.500Z,21.80
2018-09-09T11:24:17.155Z,21.80
2018-09-09T11:26:47.739Z,21.90
2018-09-09T11:29:18.069Z,22.00
2018-09-09T11:31:48.472Z,22.10
2018-09-09T11:34:18.873Z,22.10
2018-09-09T11:36:49.232Z,22.20
2018-09-09T11:39:19.633Z,22.30
2018-09-09T11:41:49.991Z,22.40
2018-09-09T11:44:20.428Z,22.40
2018-09-09T11:46:50.807Z,22.50
2018-09-09T11:49:21.401Z,22.50
2018-09-09T11:51:51.768Z,22.60
2018-09-09T11:54:22.199Z,22.70
2018-09-09T11:56:52.633Z,22.80
2018-09-09T11:59:23.044Z,23.00
2018-09-09T12:01:53.464Z,23.00
2018-09-09T12:04:24.024Z,23.10
2018-09-09T12:06:54.428Z,23.10
2018-09-09T12:09:24.820Z,23.10
2018-09-09T12:11:55.221Z,23.20
2018-09-09T12:14:25.585Z,23.10
2018-09-09T12:16:55.993Z,23.20
2018-09-09T12:19:26.372Z,23.20
2018-09-09T12:21:56.789Z,23.30
2018-09-09T12:24:27.165Z,23.30
2018-09-09T12:26:58.192Z,23.40
2018-09-09T12:29:28.555Z,23.50
2018-09-09T12:31:58.940Z,23.50
2018-09-09T12:34:29.396Z,23.60
2018-09-09T12:36:59.767Z,23.60
2018-09-09T12:39:30.157Z,23.60
2018-09-09T12:42:00.553Z,23.60
2018-09-09T12:44:36.212Z,23.60
2018-09-09T12:47:11.977Z,23.60
2018-09-09T12:49:42.542Z,23.60
2018-09-09T12:52:12.900Z,23.60
2018-09-09T12:54:43.329Z,23.70
2018-09-09T12:57:13.697Z,23.70
2018-09-09T12:59:44.145Z,23.60
2018-09-09T13:02:14.508Z,23.60
2018-09-09T13:04:44.909Z,23.60
2018-09-09T13:07:15.276Z,23.60
2018-09-09T13:09:45.852Z,23.70
2018-09-09T13:12:16.237Z,23.70
2018-09-09T13:14:46.635Z,23.70
2018-09-09T13:17:17.054Z,23.80
2018-09-09T13:19:47.443Z,23.80
2018-09-09T13:22:17.827Z,23.90
2018-09-09T13:24:48.261Z,24.00
2018-09-09T13:27:18.710Z,24.00
2018-09-09T13:29:49.362Z,24.10
2018-09-09T13:32:19.869Z,24.10
2018-09-09T13:34:50.395Z,24.10
2018-09-09T13:37:20.724Z,24.10
2018-09-09T13:39:51.140Z,24.20
2018-09-09T13:42:21.556Z,24.20
2018-09-09T13:44:51.964Z,24.30
2018-09-09T13:47:22.388Z,24.40
2018-09-09T13:49:53.222Z,24.50
2018-09-09T13:52:23.709Z,24.60
2018-09-09T13:54:54.077Z,24.70
2018-09-09T13:57:24.473Z,24.70
2018-09-09T13:59:54.832Z,24.70
2018-09-09T14:02:25.456Z,24.60
2018-09-09T14:04:55.810Z,24.60
2018-09-09T14:07:26.417Z,24.50
2018-09-09T14:09:56.780Z,24.50
2018-09-09T14:12:27.201Z,24.40
2018-09-09T14:14:57.577Z,24.40
2018-09-09T14:17:28.004Z,24.40
2018-09-09T14:19:58.409Z,24.30
2018-09-09T14:22:29.066Z,24.30
2018-09-09T14:24:59.633Z,24.20
2018-09-09T14:27:30.017Z,24.20
2018-09-09T14:30:00.408Z,24.20
2018-09-09T14:32:30.791Z,24.20
2018-09-09T14:35:01.280Z,24.20
2018-09-09T14:37:31.664Z,24.20
2018-09-09T14:40:02.080Z,24.20
2018-09-09T14:42:32.661Z,24.30
2018-09-09T14:45:03.060Z,24.20
2018-09-09T14:47:33.466Z,24.30
2018-09-09T14:50:03.872Z,24.20
2018-09-09T14:52:34.280Z,24.20
2018-09-09T14:55:04.969Z,24.10
2018-09-09T14:57:35.373Z,24.10
2018-09-09T15:00:05.824Z,24.10
2018-09-09T15:02:36.580Z,24.00
2018-09-09T15:05:06.989Z,23.90
2018-09-09T15:07:37.379Z,23.90
2018-09-09T15:10:08.154Z,23.90
2018-09-09T15:12:38.569Z,23.80
2018-09-09T15:15:08.964Z,23.80
2018-09-09T15:17:39.361Z,23.80
2018-09-09T15:20:10.093Z,23.90
2018-09-09T15:22:40.505Z,23.80
2018-09-09T15:25:10.872Z,23.80
2018-09-09T15:27:41.261Z,23.80
2018-09-09T15:30:11.677Z,23.80
2018-09-09T15:32:42.047Z,23.80
2018-09-09T15:35:12.477Z,23.70
2018-09-09T15:37:42.871Z,23.70
2018-09-09T15:40:13.441Z,23.70
2018-09-09T15:42:43.796Z,23.60
2018-09-09T15:45:14.254Z,23.60
2018-09-09T15:47:44.638Z,23.60
2018-09-09T15:50:15.032Z,23.60
2018-09-09T15:52:45.433Z,23.50
2018-09-09T15:55:15.860Z,23.50
2018-09-09T15:57:46.247Z,23.60
2018-09-09T16:00:16.894Z,23.60
2018-09-09T16:02:47.457Z,23.60
2018-09-09T16:05:17.862Z,23.60
2018-09-09T16:07:48.265Z,23.50
2018-09-09T16:10:18.636Z,23.50
2018-09-09T16:12:49.039Z,23.50
2018-09-09T16:15:19.729Z,23.40
2018-09-09T16:17:50.129Z,23.40
2018-09-09T16:20:20.533Z,23.40
2018-09-09T16:22:50.904Z,23.40
2018-09-09T16:25:21.323Z,23.30
2018-09-09T16:27:51.720Z,23.30
2018-09-09T16:30:22.095Z,23.30
2018-09-09T16:32:52.495Z,23.20
2018-09-09T16:35:22.860Z,23.20
2018-09-09T16:37:53.265Z,23.20
2018-09-09T16:40:23.824Z,23.10
2018-09-09T16:42:54.242Z,23.10
2018-09-09T16:45:24.614Z,23.10
2018-09-09T16:47:55.016Z,23.00
2018-09-09T16:50:25.417Z,23.00
2018-09-09T16:52:55.889Z,22.90
2018-09-09T16:55:26.460Z,22.80
2018-09-09T16:57:56.872Z,22.80
2018-09-09T17:00:27.241Z,22.70
2018-09-09T17:02:58.011Z,22.70
2018-09-09T17:05:28.408Z,22.60
2018-09-09T17:07:59.048Z,22.60
2018-09-09T17:10:29.517Z,22.50
2018-09-09T17:12:59.925Z,22.40
2018-09-09T17:15:30.693Z,22.40
2018-09-09T17:18:01.096Z,22.30
2018-09-09T17:20:31.498Z,22.20
2018-09-09T17:23:02.176Z,22.20
2018-09-09T17:25:32.564Z,22.10
2018-09-09T17:28:03.019Z,22.10
2018-09-09T17:30:33.576Z,22.00
2018-09-09T17:33:03.993Z,22.00
2018-09-09T17:35:34.400Z,21.90
2018-09-09T17:38:04.804Z,21.80
2018-09-09T17:40:35.177Z,21.80
2018-09-09T17:43:05.584Z,21.70
2018-09-09T17:45:35.956Z,21.70
2018-09-09T17:48:06.360Z,21.70
2018-09-09T17:50:36.772Z,21.60
2018-09-09T17:53:07.168Z,21.50
2018-09-09T17:55:37.573Z,21.40
2018-09-09T17:58:07.946Z,21.40
2018-09-09T18:00:38.345Z,21.30
2018-09-09T18:03:08.717Z,21.20
2018-09-09T18:05:39.116Z,21.10
2018-09-09T18:08:09.499Z,21.00
2018-09-09T18:10:39.881Z,21.00
2018-09-09T18:13:10.284Z,20.90
2018-09-09T18:15:40.680Z,20.80
2018-09-09T18:18:11.317Z,20.70
2018-09-09T18:20:42.115Z,20.60
2018-09-09T18:23:12.524Z,20.60
2018-09-09T18:25:42.906Z,20.50
2018-09-09T18:28:13.335Z,20.50
2018-09-09T18:30:43.744Z,20.40
2018-09-09T18:33:15.248Z,20.30
2018-09-09T18:35:46.717Z,20.20
2018-09-09T18:38:17.168Z,20.20
2018-09-09T18:40:47.555Z,20.10
2018-09-09T18:43:17.955Z,20.00
2018-09-09T18:45:48.373Z,19.90
2018-09-09T18:48:18.768Z,19.90
2018-09-09T18:50:49.184Z,19.80
2018-09-09T18:53:19.604Z,19.70
2018-09-09T18:55:49.997Z,19.70
2018-09-09T18:58:20.405Z,19.60
2018-09-09T19:00:50.810Z,19.50
2018-09-09T19:03:21.445Z,19.40
2018-09-09T19:05:51.865Z,19.30
2018-09-09T19:08:22.353Z,19.30
2018-09-09T19:10:52.807Z,19.20
2018-09-09T19:13:23.269Z,19.10
2018-09-09T19:15:53.712Z,19.10
2018-09-09T19:18:24.152Z,19.00
2018-09-09T19:20:54.532Z,19.00
2018-09-09T19:23:24.936Z,18.90
2018-09-09T19:25:55.309Z,18.90
2018-09-09T19:28:25.732Z,18.90
2018-09-09T19:30:56.101Z,18.80
2018-09-09T19:33:26.509Z,18.80
2018-09-09T19:35:56.933Z,18.70
2018-09-09T19:38:27.857Z,18.70
2018-09-09T19:40:58.225Z,18.70
2018-09-09T19:43:28.638Z,18.60
2018-09-09T19:45:59.040Z,18.60
2018-09-09T19:48:29.766Z,18.50
2018-09-09T19:51:00.564Z,18.50
2018-09-09T19:53:30.986Z,18.40
2018-09-09T19:56:01.389Z,18.40
2018-09-09T19:58:32.165Z,18.30
2018-09-09T20:01:03.009Z,18.30
2018-09-09T20:03:33.428Z,18.30
2018-09-09T20:06:03.845Z,18.20
2018-09-09T20:08:34.274Z,18.20
2018-09-09T20:11:04.661Z,18.10
2018-09-09T20:13:35.073Z,18.10
2018-09-09T20:16:05.828Z,18.00
2018-09-09T20:18:36.228Z,18.00
2018-09-09T20:21:07.171Z,18.00
2018-09-09T20:23:37.553Z,17.90
2018-09-09T20:26:08.248Z,17.90
2018-09-09T20:28:38.631Z,17.80
2018-09-09T20:31:09.302Z,17.80
2018-09-09T20:33:39.972Z,17.80
2018-09-09T20:36:10.616Z,17.80
2018-09-09T20:38:41.318Z,17.70
2018-09-09T20:41:12.171Z,17.60
2018-09-09T20:43:42.875Z,17.60
2018-09-09T20:46:13.628Z,17.60
2018-09-09T20:48:44.325Z,17.50
2018-09-09T20:51:14.989Z,17.40
2018-09-09T20:53:45.798Z,17.40
2018-09-09T20:56:16.417Z,17.40
2018-09-09T20:58:47.089Z,17.40
2018-09-09T21:01:17.785Z,17.40
2018-09-09T21:03:48.496Z,17.40
2018-09-09T21:06:19.291Z,17.30
2018-09-09T21:08:49.989Z,17.30
2018-09-09T21:11:20.641Z,17.30
2018-09-09T21:13:51.744Z,17.20
2018-09-09T21:16:22.416Z,17.10
2018-09-09T21:18:53.112Z,17.10
2018-09-09T21:21:23.771Z,17.00
2018-09-09T21:23:54.489Z,17.00
2018-09-09T21:26:25.193Z,16.90
2018-09-09T21:28:56.042Z,16.90
2018-09-09T21:31:26.749Z,16.80
2018-09-09T21:33:57.478Z,16.80
2018-09-09T21:36:28.206Z,16.80
2018-09-09T21:38:58.915Z,16.70
2018-09-09T21:41:29.617Z,16.70
2018-09-09T21:44:00.328Z,16.60
2018-09-09T21:46:31.028Z,16.60
2018-09-09T21:49:01.778Z,16.60
2018-09-09T21:51:32.489Z,16.50
2018-09-09T21:54:03.320Z,16.50
2018-09-09T21:56:34.067Z,16.40
2018-09-09T21:59:05.308Z,16.40
2018-09-09T22:01:41.352Z,16.40
2018-09-09T22:04:12.021Z,16.30
2018-09-09T22:06:42.766Z,16.30
2018-09-09T22:09:13.445Z,16.20
2018-09-09T22:11:44.181Z,16.20
2018-09-09T22:14:14.906Z,16.20
2018-09-09T22:16:45.661Z,16.10
2018-09-09T22:19:16.365Z,16.10
2018-09-09T22:21:49.302Z,16.00
2018-09-09T22:24:21.250Z,16.00
2018-09-09T22:26:51.949Z,16.00
2018-09-09T22:29:22.794Z,15.90
2018-09-09T22:31:53.491Z,15.80
2018-09-09T22:34:24.194Z,15.80
2018-09-09T22:36:54.957Z,15.80
2018-09-09T22:39:26.035Z,15.80
2018-09-09T22:41:56.720Z,15.70
2018-09-09T22:44:27.490Z,15.60
2018-09-09T22:46:58.222Z,15.60
2018-09-09T22:49:28.941Z,15.60
2018-09-09T22:51:59.621Z,15.50
2018-09-09T22:54:30.336Z,15.50
2018-09-09T22:57:00.987Z,15.50
2018-09-09T22:59:31.897Z,15.50
2018-09-09T23:02:02.547Z,15.40
2018-09-09T23:04:33.216Z,15.40
2018-09-09T23:07:03.885Z,15.40
2018-09-09T23:09:34.564Z,15.40
2018-09-09T23:12:05.270Z,15.30
2018-09-09T23:14:36.041Z,15.30
2018-09-09T23:17:07.213Z,15.30
2018-09-09T23:19:37.915Z,15.30
2018-09-09T23:22:08.600Z,15.30
2018-09-09T23:24:39.256Z,15.30
2018-09-09T23:27:09.948Z,15.30
2018-09-09T23:29:40.605Z,15.30
2018-09-09T23:32:11.288Z,15.20
2018-09-09T23:34:41.940Z,15.20
2018-09-09T23:37:12.640Z,15.20
2018-09-09T23:39:43.320Z,15.20
2018-09-09T23:42:14.047Z,15.20
2018-09-09T23:44:44.700Z,15.20
2018-09-09T23:47:15.393Z,15.20
2018-09-09T23:49:46.040Z,15.10
2018-09-09T23:52:16.759Z,15.10
2018-09-09T23:54:47.453Z,15.10
2018-09-09T23:57:18.149Z,15.10
2018-09-09T23:59:48.808Z,15.10
